Airfield :
LOGIN :

Register | Disclaimer

   EN    FR    IT 

 










Legend :    VFR   Marginal VFR   IFR   Intensive IFR   Very Intensive IFR
Visi :
Ceiling :
>= 8 km
>= 3000ft
5 to 8 km
1000 to 3000 ft
1500m to 5 km
500 to 1000 ft
800 to 1500m
200 to 500 ft
< 800m
< 200 ft
Symbols :   Thunderstorms  Fog  Heavy snow  Heavy precipitations  Wind > 20 kt
SIGMETs :     Misc.  Thunderstorms  Icing  Turbulence  Mountain Waves  Volcanic Ashes






- Airport Elevation : 119 ft
- IATA code : WAT


EIWF - Waterford

CURRENT METAR :
  • 021000Z 33015KT CAVOK 11/04 Q1019

EXPIRED METARs :
  • 020930Z 33011KT 270V010 CAVOK 10/05 Q1020
  • 020900Z 33008KT CAVOK 10/05 Q1020
  • 020830Z 33011KT 300V010 CAVOK 09/05 Q1020
  • 020800Z 32009KT 280V360 CAVOK 08/05 Q1020
  • 020730Z 32011KT 290V360 CAVOK 08/06 Q1020

TAF TAF EIWF
Valid from the 02 at 09:00 until the 02 at 18:00 UTC


020800Z 0209/0218 33011KT 9999 BKN020
PROB40
TEMPO 0212/0217 5000 -DZ BKN010
ATIS : +353 51 877 000



MET'MAP, your aeronautical weather chart ! - Copyright ORBIFLY December 2007 - Disclaimer

ORBIFLY MET'MAP TEAM :

Programming & Development : Alexandra Zaïnal
Concept & original design : Baudouin d'Aumeries
Assistance for programming : Marc-Olivier Méhu
Technical & hardware support : Manuel Goepfert

Contact : metmap@orbifly.com




SOURCES & CREDITS :

   NOAA